Ozark Regional Airport
KBPK : rendu visible

Aérodrome :











RETROUVEZ-NOUS SUR...

 
LOGIN :

S'inscrire | Disclaimer

   EN    FR    IT 

 









Légende :    VFR   VFR Marginal   IFR   IFR Intensif   IFR Très Intensif
Visi : 
Plafond : 
>= 8 km
>= 3000ft
5 à 8 km
1000 à 3000 ft
1500m à 5 km
500 à 1000 ft
800 à 1500m
200 à 500 ft
< 800m
< 200 ft
Symboles :   Orages  Brouillard  Fortes neiges  Fortes précipitations  Vent > 20 kt






- Altitude de l'aérodrome : 928 ft


KBPK - Ozark Regional

DERNIER METAR :
  • 151653Z AUTO VRB04KT 10SM CLR 31/22 A2999 RMK AO2 SLP145 T03110217 $

METARs EXPIRÉS :
  • 151553Z AUTO VRB03KT 10SM CLR 29/22 A3003 RMK AO2 SLP158 T02940222 $
  • 151453Z AUTO 23003KT 10SM CLR 27/22 A3001 RMK AO2 SLP150 T02720222 51007 $

TAF KBPK
Valide du 15 à 13h jusqu'au 16 à 12h UTC


151309Z 1513/1612 00000KT P6SM SKC
FM151400 25003KT P6SM SCT250
FM151800 34006KT P6SM VCSH SCT050
FM160100 36003KT P6SM BKN100
FIR KZME / Amérique du Nord



MET'MAP, la Météo Aéronautique d'un coup d'oeil ! - Copyright ORBIFLY Décembre 2007 - Disclaimer

ORBIFLY MET'MAP TEAM :

Programmation & Développement : Alexandra Zaïnal
Sur une idée originale de : Baudouin d'Aumeries
Assistance à la programmation : Marc-Olivier Méhu
Soutien technique & logistique : Manuel Goepfert

Contact : metmap@orbifly.com




SOURCES & CREDITS :

   NOAA       Earth
Advisory